sensor_id;sensor_type;location;lat;lon;timestamp;P1;durP1;ratioP1;P2;durP2;ratioP2
26620;SDS011;14253;44.840;10.444;2023-02-02T00:00:53;54.17;;;27.23;;
26620;SDS011;14253;44.840;10.444;2023-02-02T00:03:19;63.42;;;28.65;;
26620;SDS011;14253;44.840;10.444;2023-02-02T03:14:47;26.02;;;13.50;;
26620;SDS011;14253;44.840;10.444;2023-02-02T03:17:13;26.80;;;13.65;;
26620;SDS011;14253;44.840;10.444;2023-02-02T03:19:39;27.50;;;13.77;;
26620;SDS011;14253;44.840;10.444;2023-02-02T03:22:05;28.55;;;14.20;;
26620;SDS011;14253;44.840;10.444;2023-02-02T03:24:31;29.90;;;14.63;;
26620;SDS011;14253;44.840;10.444;2023-02-02T03:26:57;30.02;;;14.18;;
26620;SDS011;14253;44.840;10.444;2023-02-02T03:29:24;25.80;;;13.02;;
26620;SDS011;14253;44.840;10.444;2023-02-02T03:31:50;28.98;;;14.60;;
26620;SDS011;14253;44.840;10.444;2023-02-02T03:34:16;27.75;;;13.90;;
26620;SDS011;14253;44.840;10.444;2023-02-02T03:36:41;26.15;;;13.40;;
26620;SDS011;14253;44.840;10.444;2023-02-02T03:39:07;33.58;;;14.07;;
26620;SDS011;14253;44.840;10.444;2023-02-02T03:41:33;24.98;;;14.05;;
26620;SDS011;14253;44.840;10.444;2023-02-02T03:43:59;28.92;;;13.70;;
26620;SDS011;14253;44.840;10.444;2023-02-02T03:46:25;26.63;;;14.10;;
26620;SDS011;14253;44.840;10.444;2023-02-02T03:48:51;32.78;;;15.73;;
26620;SDS011;14253;44.840;10.444;2023-02-02T03:51:17;27.17;;;15.65;;
26620;SDS011;14253;44.840;10.444;2023-02-02T03:53:43;32.70;;;14.18;;
26620;SDS011;14253;44.840;10.444;2023-02-02T03:56:11;25.25;;;14.43;;
26620;SDS011;14253;44.840;10.444;2023-02-02T03:58:38;28.65;;;15.20;;
26620;SDS011;14253;44.840;10.444;2023-02-02T04:01:09;36.22;;;15.52;;
26620;SDS011;14253;44.840;10.444;2023-02-02T04:03:36;33.55;;;15.43;;
26620;SDS011;14253;44.840;10.444;2023-02-02T04:06:02;30.70;;;15.93;;
26620;SDS011;14253;44.840;10.444;2023-02-02T04:08:28;25.42;;;15.50;;
26620;SDS011;14253;44.840;10.444;2023-02-02T04:10:55;29.25;;;14.82;;
26620;SDS011;14253;44.840;10.444;2023-02-02T04:13:21;30.67;;;16.35;;
26620;SDS011;14253;44.840;10.444;2023-02-02T04:15:54;30.20;;;17.00;;
26620;SDS011;14253;44.840;10.444;2023-02-02T04:18:23;29.73;;;16.73;;
26620;SDS011;14253;44.840;10.444;2023-02-02T04:20:49;36.65;;;18.15;;
26620;SDS011;14253;44.840;10.444;2023-02-02T04:23:26;39.03;;;19.08;;
26620;SDS011;14253;44.840;10.444;2023-02-02T04:26:07;38.30;;;18.35;;
26620;SDS011;14253;44.840;10.444;2023-02-02T04:28:33;37.85;;;19.63;;
26620;SDS011;14253;44.840;10.444;2023-02-02T04:30:59;38.72;;;20.67;;
26620;SDS011;14253;44.840;10.444;2023-02-02T04:33:26;43.78;;;22.90;;
26620;SDS011;14253;44.840;10.444;2023-02-02T04:35:53;51.38;;;24.40;;
26620;SDS011;14253;44.840;10.444;2023-02-02T04:38:19;38.88;;;21.25;;
26620;SDS011;14253;44.840;10.444;2023-02-02T04:40:46;39.53;;;17.83;;
26620;SDS011;14253;44.840;10.444;2023-02-02T04:43:12;34.50;;;18.48;;
26620;SDS011;14253;44.840;10.444;2023-02-02T04:45:38;38.38;;;18.98;;
26620;SDS011;14253;44.840;10.444;2023-02-02T04:48:04;41.67;;;21.52;;
26620;SDS011;14253;44.840;10.444;2023-02-02T04:50:30;34.50;;;17.90;;
26620;SDS011;14253;44.840;10.444;2023-02-02T04:52:57;35.00;;;16.50;;
26620;SDS011;14253;44.840;10.444;2023-02-02T04:55:23;36.20;;;15.82;;
26620;SDS011;14253;44.840;10.444;2023-02-02T04:57:48;32.35;;;15.73;;
26620;SDS011;14253;44.840;10.444;2023-02-02T05:00:15;33.55;;;15.48;;
26620;SDS011;14253;44.840;10.444;2023-02-02T05:02:41;37.05;;;16.33;;
26620;SDS011;14253;44.840;10.444;2023-02-02T05:05:08;36.42;;;16.52;;
26620;SDS011;14253;44.840;10.444;2023-02-02T05:07:36;28.92;;;14.00;;
26620;SDS011;14253;44.840;10.444;2023-02-02T05:10:04;26.60;;;14.32;;
26620;SDS011;14253;44.840;10.444;2023-02-02T05:12:31;27.88;;;12.25;;
26620;SDS011;14253;44.840;10.444;2023-02-02T05:14:57;29.05;;;12.82;;
26620;SDS011;14253;44.840;10.444;2023-02-02T05:17:25;22.67;;;12.00;;
26620;SDS011;14253;44.840;10.444;2023-02-02T05:19:51;24.10;;;11.88;;
26620;SDS011;14253;44.840;10.444;2023-02-02T05:22:17;23.45;;;10.57;;
26620;SDS011;14253;44.840;10.444;2023-02-02T05:24:43;21.48;;;10.15;;
26620;SDS011;14253;44.840;10.444;2023-02-02T05:27:09;21.70;;;10.25;;
26620;SDS011;14253;44.840;10.444;2023-02-02T05:29:35;30.58;;;11.20;;
26620;SDS011;14253;44.840;10.444;2023-02-02T05:32:01;21.33;;;9.75;;
26620;SDS011;14253;44.840;10.444;2023-02-02T05:34:27;19.73;;;8.88;;
26620;SDS011;14253;44.840;10.444;2023-02-02T05:36:53;19.73;;;9.10;;
26620;SDS011;14253;44.840;10.444;2023-02-02T05:39:19;15.77;;;8.68;;
26620;SDS011;14253;44.840;10.444;2023-02-02T05:41:45;16.55;;;7.55;;
26620;SDS011;14253;44.840;10.444;2023-02-02T05:44:11;23.17;;;7.65;;
26620;SDS011;14253;44.840;10.444;2023-02-02T05:46:38;16.10;;;7.20;;
26620;SDS011;14253;44.840;10.444;2023-02-02T05:49:05;14.02;;;7.30;;
26620;SDS011;14253;44.840;10.444;2023-02-02T05:51:36;21.80;;;8.95;;
26620;SDS011;14253;44.840;10.444;2023-02-02T05:54:14;20.02;;;9.48;;
26620;SDS011;14253;44.840;10.444;2023-02-02T05:56:47;20.73;;;10.30;;
26620;SDS011;14253;44.840;10.444;2023-02-02T05:59:16;24.98;;;11.20;;
26620;SDS011;14253;44.840;10.444;2023-02-02T06:01:45;26.90;;;12.25;;
26620;SDS011;14253;44.840;10.444;2023-02-02T06:04:11;19.75;;;10.73;;
26620;SDS011;14253;44.840;10.444;2023-02-02T06:06:38;25.95;;;10.60;;
26620;SDS011;14253;44.840;10.444;2023-02-02T06:09:04;18.20;;;10.45;;
26620;SDS011;14253;44.840;10.444;2023-02-02T06:11:31;19.10;;;10.50;;
26620;SDS011;14253;44.840;10.444;2023-02-02T06:13:58;21.33;;;11.02;;
26620;SDS011;14253;44.840;10.444;2023-02-02T06:16:24;20.75;;;11.27;;
26620;SDS011;14253;44.840;10.444;2023-02-02T06:18:50;15.43;;;9.30;;
26620;SDS011;14253;44.840;10.444;2023-02-02T06:21:16;18.30;;;10.60;;
26620;SDS011;14253;44.840;10.444;2023-02-02T06:23:44;22.70;;;11.80;;
26620;SDS011;14253;44.840;10.444;2023-02-02T06:26:11;19.23;;;10.48;;
26620;SDS011;14253;44.840;10.444;2023-02-02T06:28:38;21.75;;;10.02;;
26620;SDS011;14253;44.840;10.444;2023-02-02T06:31:04;21.42;;;10.38;;
26620;SDS011;14253;44.840;10.444;2023-02-02T06:33:31;24.55;;;11.85;;
26620;SDS011;14253;44.840;10.444;2023-02-02T06:35:58;19.55;;;11.45;;
26620;SDS011;14253;44.840;10.444;2023-02-02T06:38:25;23.70;;;11.60;;
26620;SDS011;14253;44.840;10.444;2023-02-02T06:40:51;22.65;;;12.35;;
26620;SDS011;14253;44.840;10.444;2023-02-02T06:43:17;29.25;;;14.40;;
26620;SDS011;14253;44.840;10.444;2023-02-02T06:45:43;24.63;;;12.80;;
26620;SDS011;14253;44.840;10.444;2023-02-02T06:48:09;23.70;;;12.75;;
26620;SDS011;14253;44.840;10.444;2023-02-02T06:50:36;45.10;;;23.38;;
26620;SDS011;14253;44.840;10.444;2023-02-02T06:53:03;57.67;;;28.10;;
26620;SDS011;14253;44.840;10.444;2023-02-02T06:55:29;32.90;;;16.38;;
26620;SDS011;14253;44.840;10.444;2023-02-02T06:57:56;25.88;;;13.45;;
26620;SDS011;14253;44.840;10.444;2023-02-02T07:00:23;22.92;;;11.48;;
26620;SDS011;14253;44.840;10.444;2023-02-02T07:02:49;22.25;;;11.18;;
26620;SDS011;14253;44.840;10.444;2023-02-02T07:05:15;24.27;;;11.90;;
26620;SDS011;14253;44.840;10.444;2023-02-02T07:07:43;24.20;;;11.90;;
26620;SDS011;14253;44.840;10.444;2023-02-02T07:10:10;23.55;;;11.88;;
26620;SDS011;14253;44.840;10.444;2023-02-02T07:12:36;21.88;;;13.07;;
26620;SDS011;14253;44.840;10.444;2023-02-02T07:15:02;27.33;;;12.90;;
26620;SDS011;14253;44.840;10.444;2023-02-02T07:17:29;23.90;;;13.52;;
26620;SDS011;14253;44.840;10.444;2023-02-02T07:19:55;22.20;;;12.07;;
26620;SDS011;14253;44.840;10.444;2023-02-02T07:22:21;26.85;;;12.73;;
26620;SDS011;14253;44.840;10.444;2023-02-02T07:24:47;25.67;;;12.45;;
26620;SDS011;14253;44.840;10.444;2023-02-02T07:27:13;26.02;;;12.85;;
26620;SDS011;14253;44.840;10.444;2023-02-02T07:29:39;31.73;;;14.50;;
26620;SDS011;14253;44.840;10.444;2023-02-02T07:32:05;27.92;;;13.13;;
26620;SDS011;14253;44.840;10.444;2023-02-02T07:34:30;27.85;;;14.15;;
26620;SDS011;14253;44.840;10.444;2023-02-02T07:36:56;26.77;;;13.82;;
26620;SDS011;14253;44.840;10.444;2023-02-02T07:39:22;30.42;;;14.50;;
26620;SDS011;14253;44.840;10.444;2023-02-02T07:41:48;31.33;;;15.05;;
26620;SDS011;14253;44.840;10.444;2023-02-02T07:44:28;30.80;;;13.88;;
26620;SDS011;14253;44.840;10.444;2023-02-02T07:46:54;29.60;;;14.52;;
26620;SDS011;14253;44.840;10.444;2023-02-02T07:49:20;30.45;;;14.07;;
26620;SDS011;14253;44.840;10.444;2023-02-02T07:51:46;27.23;;;13.65;;
26620;SDS011;14253;44.840;10.444;2023-02-02T07:54:13;24.65;;;14.00;;
26620;SDS011;14253;44.840;10.444;2023-02-02T07:56:39;28.25;;;14.13;;
26620;SDS011;14253;44.840;10.444;2023-02-02T07:59:05;32.90;;;16.02;;
26620;SDS011;14253;44.840;10.444;2023-02-02T08:01:31;27.67;;;14.55;;
26620;SDS011;14253;44.840;10.444;2023-02-02T08:03:58;34.08;;;13.25;;
26620;SDS011;14253;44.840;10.444;2023-02-02T08:06:31;22.77;;;11.98;;
26620;SDS011;14253;44.840;10.444;2023-02-02T08:09:00;28.83;;;13.70;;
26620;SDS011;14253;44.840;10.444;2023-02-02T08:11:28;25.33;;;12.38;;
26620;SDS011;14253;44.840;10.444;2023-02-02T08:13:55;30.73;;;11.38;;
26620;SDS011;14253;44.840;10.444;2023-02-02T08:16:23;32.40;;;18.42;;
26620;SDS011;14253;44.840;10.444;2023-02-02T08:18:50;28.13;;;14.95;;
26620;SDS011;14253;44.840;10.444;2023-02-02T08:21:17;25.27;;;11.60;;
26620;SDS011;14253;44.840;10.444;2023-02-02T08:23:43;24.52;;;10.65;;
26620;SDS011;14253;44.840;10.444;2023-02-02T08:26:14;21.88;;;11.48;;
26620;SDS011;14253;44.840;10.444;2023-02-02T08:28:41;28.75;;;12.50;;
26620;SDS011;14253;44.840;10.444;2023-02-02T08:31:09;25.25;;;13.05;;
26620;SDS011;14253;44.840;10.444;2023-02-02T08:36:12;26.17;;;11.63;;
26620;SDS011;14253;44.840;10.444;2023-02-02T08:38:39;31.02;;;11.98;;
26620;SDS011;14253;44.840;10.444;2023-02-02T08:41:06;23.85;;;11.05;;
26620;SDS011;14253;44.840;10.444;2023-02-02T08:43:34;18.58;;;10.10;;
26620;SDS011;14253;44.840;10.444;2023-02-02T08:46:01;18.88;;;11.52;;
26620;SDS011;14253;44.840;10.444;2023-02-02T08:48:27;21.50;;;10.80;;
26620;SDS011;14253;44.840;10.444;2023-02-02T08:50:53;18.38;;;11.15;;
26620;SDS011;14253;44.840;10.444;2023-02-02T08:53:21;19.45;;;10.55;;
26620;SDS011;14253;44.840;10.444;2023-02-02T08:55:47;24.90;;;10.27;;
26620;SDS011;14253;44.840;10.444;2023-02-02T08:58:21;18.10;;;9.23;;
26620;SDS011;14253;44.840;10.444;2023-02-02T09:00:47;18.38;;;10.18;;
26620;SDS011;14253;44.840;10.444;2023-02-02T09:03:15;22.05;;;9.95;;
26620;SDS011;14253;44.840;10.444;2023-02-02T09:05:41;20.80;;;10.30;;
26620;SDS011;14253;44.840;10.444;2023-02-02T09:08:08;16.33;;;9.55;;
26620;SDS011;14253;44.840;10.444;2023-02-02T09:10:35;13.40;;;9.27;;
26620;SDS011;14253;44.840;10.444;2023-02-02T09:13:02;13.43;;;8.85;;
26620;SDS011;14253;44.840;10.444;2023-02-02T09:15:29;16.33;;;9.48;;
26620;SDS011;14253;44.840;10.444;2023-02-02T09:17:55;20.17;;;8.98;;
26620;SDS011;14253;44.840;10.444;2023-02-02T09:20:21;15.48;;;8.90;;
26620;SDS011;14253;44.840;10.444;2023-02-02T09:22:47;14.90;;;8.10;;
26620;SDS011;14253;44.840;10.444;2023-02-02T09:25:13;18.17;;;8.68;;
26620;SDS011;14253;44.840;10.444;2023-02-02T09:27:39;14.13;;;8.48;;
26620;SDS011;14253;44.840;10.444;2023-02-02T09:30:06;17.23;;;9.10;;
26620;SDS011;14253;44.840;10.444;2023-02-02T09:32:33;19.50;;;8.20;;
26620;SDS011;14253;44.840;10.444;2023-02-02T09:34:59;14.60;;;8.32;;
26620;SDS011;14253;44.840;10.444;2023-02-02T09:37:25;13.30;;;8.05;;
26620;SDS011;14253;44.840;10.444;2023-02-02T09:39:52;12.90;;;7.90;;
26620;SDS011;14253;44.840;10.444;2023-02-02T09:42:20;15.40;;;7.45;;
26620;SDS011;14253;44.840;10.444;2023-02-02T09:48:23;20.23;;;8.55;;
26620;SDS011;14253;44.840;10.444;2023-02-02T09:51:05;17.40;;;8.00;;
26620;SDS011;14253;44.840;10.444;2023-02-02T09:56:04;13.13;;;6.32;;
26620;SDS011;14253;44.840;10.444;2023-02-02T09:58:40;12.95;;;7.18;;
26620;SDS011;14253;44.840;10.444;2023-02-02T10:01:26;11.20;;;5.97;;
26620;SDS011;14253;44.840;10.444;2023-02-02T10:04:03;11.38;;;6.07;;
26620;SDS011;14253;44.840;10.444;2023-02-02T10:09:24;9.70;;;5.53;;
26620;SDS011;14253;44.840;10.444;2023-02-02T10:12:17;17.52;;;5.25;;
26620;SDS011;14253;44.840;10.444;2023-02-02T10:22:55;18.98;;;6.70;;
26620;SDS011;14253;44.840;10.444;2023-02-02T10:25:25;11.95;;;5.35;;
26620;SDS011;14253;44.840;10.444;2023-02-02T10:27:56;8.55;;;4.97;;
26620;SDS011;14253;44.840;10.444;2023-02-02T10:30:49;7.85;;;4.60;;
26620;SDS011;14253;44.840;10.444;2023-02-02T10:35:56;9.07;;;4.15;;
26620;SDS011;14253;44.840;10.444;2023-02-02T10:46:39;8.55;;;4.10;;
26620;SDS011;14253;44.840;10.444;2023-02-02T10:49:11;9.57;;;4.03;;
26620;SDS011;14253;44.840;10.444;2023-02-02T10:51:54;11.30;;;3.70;;
26620;SDS011;14253;44.840;10.444;2023-02-02T10:57:11;8.52;;;3.47;;
26620;SDS011;14253;44.840;10.444;2023-02-02T10:59:54;6.00;;;3.03;;
26620;SDS011;14253;44.840;10.444;2023-02-02T11:02:30;7.35;;;3.00;;
26620;SDS011;14253;44.840;10.444;2023-02-02T11:04:56;10.00;;;3.33;;
26620;SDS011;14253;44.840;10.444;2023-02-02T11:07:41;10.32;;;3.28;;
26620;SDS011;14253;44.840;10.444;2023-02-02T11:10:07;9.45;;;3.30;;
26620;SDS011;14253;44.840;10.444;2023-02-02T11:12:34;12.20;;;3.10;;
26620;SDS011;14253;44.840;10.444;2023-02-02T11:17:33;12.55;;;3.10;;
26620;SDS011;14253;44.840;10.444;2023-02-02T11:19:59;7.13;;;2.72;;
26620;SDS011;14253;44.840;10.444;2023-02-02T11:22:30;5.68;;;3.10;;
26620;SDS011;14253;44.840;10.444;2023-02-02T11:32:51;8.15;;;2.92;;
26620;SDS011;14253;44.840;10.444;2023-02-02T11:37:55;7.05;;;3.40;;
26620;SDS011;14253;44.840;10.444;2023-02-02T11:42:52;7.53;;;3.50;;
26620;SDS011;14253;44.840;10.444;2023-02-02T11:45:45;8.82;;;3.45;;
26620;SDS011;14253;44.840;10.444;2023-02-02T11:48:17;7.32;;;2.92;;
26620;SDS011;14253;44.840;10.444;2023-02-02T11:50:49;7.35;;;3.10;;
26620;SDS011;14253;44.840;10.444;2023-02-02T11:55:55;6.72;;;2.47;;
26620;SDS011;14253;44.840;10.444;2023-02-02T11:58:25;3.55;;;2.08;;
26620;SDS011;14253;44.840;10.444;2023-02-02T12:00:54;8.77;;;2.50;;
26620;SDS011;14253;44.840;10.444;2023-02-02T12:03:29;11.02;;;2.33;;
26620;SDS011;14253;44.840;10.444;2023-02-02T12:05:58;4.22;;;1.10;;
26620;SDS011;14253;44.840;10.444;2023-02-02T12:08:26;4.50;;;1.30;;
26620;SDS011;14253;44.840;10.444;2023-02-02T12:10:55;3.88;;;1.13;;
26620;SDS011;14253;44.840;10.444;2023-02-02T12:13:27;5.47;;;1.40;;
26620;SDS011;14253;44.840;10.444;2023-02-02T12:16:09;2.95;;;0.90;;
26620;SDS011;14253;44.840;10.444;2023-02-02T12:18:59;5.15;;;1.40;;
26620;SDS011;14253;44.840;10.444;2023-02-02T12:26:49;4.93;;;1.30;;
26620;SDS011;14253;44.840;10.444;2023-02-02T12:32:52;3.05;;;1.23;;
26620;SDS011;14253;44.840;10.444;2023-02-02T12:35:18;3.00;;;0.88;;
26620;SDS011;14253;44.840;10.444;2023-02-02T12:43:52;3.13;;;1.20;;
26620;SDS011;14253;44.840;10.444;2023-02-02T12:52:15;3.08;;;1.25;;
26620;SDS011;14253;44.840;10.444;2023-02-02T12:55:09;8.02;;;1.30;;
26620;SDS011;14253;44.840;10.444;2023-02-02T12:58:22;4.82;;;0.82;;
26620;SDS011;14253;44.840;10.444;2023-02-02T13:03:37;6.18;;;1.30;;
26620;SDS011;14253;44.840;10.444;2023-02-02T13:06:22;3.35;;;0.95;;
26620;SDS011;14253;44.840;10.444;2023-02-02T13:09:16;0.90;;;0.45;;
26620;SDS011;14253;44.840;10.444;2023-02-02T13:11:47;2.08;;;0.68;;
26620;SDS011;14253;44.840;10.444;2023-02-02T13:16:55;2.30;;;0.90;;
26620;SDS011;14253;44.840;10.444;2023-02-02T13:19:33;2.13;;;1.55;;
26620;SDS011;14253;44.840;10.444;2023-02-02T13:22:07;1.73;;;1.13;;
26620;SDS011;14253;44.840;10.444;2023-02-02T13:24:39;3.78;;;1.00;;
26620;SDS011;14253;44.840;10.444;2023-02-02T13:27:09;2.42;;;1.20;;
26620;SDS011;14253;44.840;10.444;2023-02-02T13:29:44;3.65;;;0.77;;
26620;SDS011;14253;44.840;10.444;2023-02-02T13:32:17;1.95;;;0.68;;
26620;SDS011;14253;44.840;10.444;2023-02-02T13:48:56;4.25;;;1.00;;
26620;SDS011;14253;44.840;10.444;2023-02-02T13:59:58;3.33;;;1.20;;
26620;SDS011;14253;44.840;10.444;2023-02-02T14:02:33;2.35;;;0.90;;
26620;SDS011;14253;44.840;10.444;2023-02-02T14:05:31;1.67;;;0.90;;
26620;SDS011;14253;44.840;10.444;2023-02-02T14:13:36;5.47;;;1.88;;
26620;SDS011;14253;44.840;10.444;2023-02-02T14:18:56;2.40;;;1.13;;
26620;SDS011;14253;44.840;10.444;2023-02-02T14:23:59;4.93;;;1.52;;
26620;SDS011;14253;44.840;10.444;2023-02-02T14:26:49;3.70;;;1.38;;
26620;SDS011;14253;44.840;10.444;2023-02-02T14:42:47;5.53;;;2.13;;
26620;SDS011;14253;44.840;10.444;2023-02-02T14:48:37;3.22;;;1.50;;
26620;SDS011;14253;44.840;10.444;2023-02-02T14:51:24;6.82;;;1.83;;
26620;SDS011;14253;44.840;10.444;2023-02-02T14:53:59;2.30;;;1.30;;
26620;SDS011;14253;44.840;10.444;2023-02-02T14:56:38;4.57;;;1.67;;
26620;SDS011;14253;44.840;10.444;2023-02-02T14:59:21;3.05;;;1.50;;
26620;SDS011;14253;44.840;10.444;2023-02-02T15:04:35;7.15;;;1.70;;
26620;SDS011;14253;44.840;10.444;2023-02-02T15:09:50;5.72;;;2.50;;
26620;SDS011;14253;44.840;10.444;2023-02-02T15:20:39;4.20;;;1.98;;
26620;SDS011;14253;44.840;10.444;2023-02-02T15:33:51;3.22;;;1.48;;
26620;SDS011;14253;44.840;10.444;2023-02-02T15:36:40;2.97;;;1.45;;
26620;SDS011;14253;44.840;10.444;2023-02-02T15:41:56;4.43;;;1.17;;
26620;SDS011;14253;44.840;10.444;2023-02-02T15:44:43;2.80;;;1.33;;
26620;SDS011;14253;44.840;10.444;2023-02-02T15:47:16;4.05;;;1.20;;
26620;SDS011;14253;44.840;10.444;2023-02-02T15:49:54;2.85;;;1.60;;
26620;SDS011;14253;44.840;10.444;2023-02-02T15:52:22;6.95;;;1.35;;
26620;SDS011;14253;44.840;10.444;2023-02-02T15:54:56;7.40;;;1.40;;
26620;SDS011;14253;44.840;10.444;2023-02-02T15:59:57;6.60;;;1.98;;
26620;SDS011;14253;44.840;10.444;2023-02-02T16:04:50;16.25;;;5.43;;
26620;SDS011;14253;44.840;10.444;2023-02-02T16:07:17;24.30;;;5.75;;
26620;SDS011;14253;44.840;10.444;2023-02-02T16:09:47;12.65;;;4.50;;
26620;SDS011;14253;44.840;10.444;2023-02-02T16:12:14;10.18;;;4.93;;
26620;SDS011;14253;44.840;10.444;2023-02-02T16:14:48;5.72;;;2.85;;
26620;SDS011;14253;44.840;10.444;2023-02-02T16:17:29;8.57;;;3.20;;
26620;SDS011;14253;44.840;10.444;2023-02-02T16:19:59;12.52;;;4.95;;
26620;SDS011;14253;44.840;10.444;2023-02-02T16:22:28;7.10;;;2.90;;
26620;SDS011;14253;44.840;10.444;2023-02-02T16:24:57;12.48;;;5.03;;
26620;SDS011;14253;44.840;10.444;2023-02-02T16:27:28;19.00;;;8.88;;
26620;SDS011;14253;44.840;10.444;2023-02-02T16:29:57;24.45;;;11.90;;
26620;SDS011;14253;44.840;10.444;2023-02-02T16:32:30;9.43;;;6.25;;
26620;SDS011;14253;44.840;10.444;2023-02-02T16:34:56;6.95;;;3.88;;
26620;SDS011;14253;44.840;10.444;2023-02-02T16:37:29;8.02;;;2.72;;
26620;SDS011;14253;44.840;10.444;2023-02-02T16:45:57;5.03;;;2.47;;
26620;SDS011;14253;44.840;10.444;2023-02-02T16:51:05;6.00;;;2.50;;
26620;SDS011;14253;44.840;10.444;2023-02-02T16:53:41;4.38;;;2.08;;
26620;SDS011;14253;44.840;10.444;2023-02-02T16:56:23;6.93;;;2.20;;
26620;SDS011;14253;44.840;10.444;2023-02-02T16:59:15;9.13;;;2.20;;
26620;SDS011;14253;44.840;10.444;2023-02-02T17:01:47;4.85;;;1.70;;
26620;SDS011;14253;44.840;10.444;2023-02-02T17:04:18;4.45;;;1.90;;
26620;SDS011;14253;44.840;10.444;2023-02-02T17:06:48;6.28;;;2.00;;
26620;SDS011;14253;44.840;10.444;2023-02-02T17:12:03;6.35;;;2.28;;
26620;SDS011;14253;44.840;10.444;2023-02-02T17:14:58;8.82;;;2.60;;
26620;SDS011;14253;44.840;10.444;2023-02-02T17:17:29;5.18;;;2.08;;
26620;SDS011;14253;44.840;10.444;2023-02-02T17:19:55;6.65;;;2.30;;
26620;SDS011;14253;44.840;10.444;2023-02-02T17:22:22;5.07;;;2.25;;
26620;SDS011;14253;44.840;10.444;2023-02-02T17:24:50;6.97;;;2.05;;
26620;SDS011;14253;44.840;10.444;2023-02-02T17:27:27;7.00;;;2.45;;
26620;SDS011;14253;44.840;10.444;2023-02-02T17:30:00;4.97;;;2.35;;
26620;SDS011;14253;44.840;10.444;2023-02-02T17:32:28;10.65;;;3.63;;
26620;SDS011;14253;44.840;10.444;2023-02-02T17:34:54;23.00;;;14.88;;
26620;SDS011;14253;44.840;10.444;2023-02-02T17:37:20;17.38;;;11.00;;
26620;SDS011;14253;44.840;10.444;2023-02-02T17:39:46;21.10;;;8.52;;
26620;SDS011;14253;44.840;10.444;2023-02-02T17:42:25;18.92;;;7.00;;
26620;SDS011;14253;44.840;10.444;2023-02-02T17:44:52;15.73;;;5.30;;
26620;SDS011;14253;44.840;10.444;2023-02-02T17:47:18;16.17;;;6.93;;
26620;SDS011;14253;44.840;10.444;2023-02-02T17:49:44;13.15;;;6.05;;
26620;SDS011;14253;44.840;10.444;2023-02-02T17:52:11;12.18;;;5.03;;
26620;SDS011;14253;44.840;10.444;2023-02-02T17:54:37;9.57;;;3.20;;
26620;SDS011;14253;44.840;10.444;2023-02-02T17:57:03;9.25;;;3.40;;
26620;SDS011;14253;44.840;10.444;2023-02-02T17:59:29;10.82;;;3.90;;
26620;SDS011;14253;44.840;10.444;2023-02-02T18:01:55;8.35;;;3.75;;
26620;SDS011;14253;44.840;10.444;2023-02-02T18:04:23;16.02;;;4.55;;
26620;SDS011;14253;44.840;10.444;2023-02-02T18:06:50;8.65;;;4.15;;
26620;SDS011;14253;44.840;10.444;2023-02-02T18:09:17;9.85;;;4.47;;
26620;SDS011;14253;44.840;10.444;2023-02-02T18:11:43;13.98;;;5.63;;
26620;SDS011;14253;44.840;10.444;2023-02-02T18:14:10;9.95;;;5.28;;
26620;SDS011;14253;44.840;10.444;2023-02-02T18:16:37;10.07;;;4.30;;
26620;SDS011;14253;44.840;10.444;2023-02-02T18:19:10;21.50;;;5.90;;
26620;SDS011;14253;44.840;10.444;2023-02-02T18:21:36;16.00;;;5.57;;
26620;SDS011;14253;44.840;10.444;2023-02-02T18:24:02;17.63;;;7.85;;
26620;SDS011;14253;44.840;10.444;2023-02-02T18:26:28;14.77;;;7.10;;
26620;SDS011;14253;44.840;10.444;2023-02-02T18:28:56;16.40;;;7.80;;
26620;SDS011;14253;44.840;10.444;2023-02-02T18:31:23;14.48;;;8.23;;
26620;SDS011;14253;44.840;10.444;2023-02-02T18:33:49;17.20;;;7.72;;
26620;SDS011;14253;44.840;10.444;2023-02-02T18:36:16;23.58;;;8.23;;
26620;SDS011;14253;44.840;10.444;2023-02-02T18:38:44;18.92;;;7.57;;
26620;SDS011;14253;44.840;10.444;2023-02-02T18:41:13;13.32;;;5.53;;
26620;SDS011;14253;44.840;10.444;2023-02-02T18:43:40;11.80;;;5.93;;
26620;SDS011;14253;44.840;10.444;2023-02-02T18:46:06;18.38;;;6.13;;
26620;SDS011;14253;44.840;10.444;2023-02-02T18:48:35;10.38;;;5.97;;
26620;SDS011;14253;44.840;10.444;2023-02-02T18:51:09;14.73;;;6.00;;
26620;SDS011;14253;44.840;10.444;2023-02-02T18:53:39;11.80;;;5.35;;
26620;SDS011;14253;44.840;10.444;2023-02-02T18:56:07;16.42;;;5.97;;
26620;SDS011;14253;44.840;10.444;2023-02-02T18:58:35;14.95;;;5.53;;
26620;SDS011;14253;44.840;10.444;2023-02-02T19:01:08;14.52;;;5.50;;
26620;SDS011;14253;44.840;10.444;2023-02-02T19:03:35;13.52;;;5.30;;
26620;SDS011;14253;44.840;10.444;2023-02-02T19:06:05;17.50;;;5.22;;
26620;SDS011;14253;44.840;10.444;2023-02-02T19:08:50;16.73;;;6.20;;
26620;SDS011;14253;44.840;10.444;2023-02-02T19:11:17;13.23;;;5.05;;
26620;SDS011;14253;44.840;10.444;2023-02-02T19:13:47;15.40;;;5.72;;
26620;SDS011;14253;44.840;10.444;2023-02-02T19:16:27;12.93;;;5.72;;
26620;SDS011;14253;44.840;10.444;2023-02-02T19:18:57;14.05;;;5.50;;
26620;SDS011;14253;44.840;10.444;2023-02-02T19:21:30;10.68;;;4.95;;
26620;SDS011;14253;44.840;10.444;2023-02-02T19:23:56;9.80;;;4.97;;
26620;SDS011;14253;44.840;10.444;2023-02-02T19:26:24;10.48;;;4.90;;
26620;SDS011;14253;44.840;10.444;2023-02-02T19:28:52;19.38;;;6.25;;
26620;SDS011;14253;44.840;10.444;2023-02-02T19:31:21;11.70;;;6.28;;
26620;SDS011;14253;44.840;10.444;2023-02-02T19:33:48;11.68;;;5.25;;
26620;SDS011;14253;44.840;10.444;2023-02-02T19:36:19;9.13;;;4.80;;
26620;SDS011;14253;44.840;10.444;2023-02-02T19:38:54;11.88;;;3.15;;
26620;SDS011;14253;44.840;10.444;2023-02-02T19:41:25;6.28;;;2.53;;
26620;SDS011;14253;44.840;10.444;2023-02-02T19:43:55;10.23;;;3.67;;
26620;SDS011;14253;44.840;10.444;2023-02-02T19:46:24;5.40;;;3.10;;
26620;SDS011;14253;44.840;10.444;2023-02-02T19:48:52;6.95;;;2.78;;
26620;SDS011;14253;44.840;10.444;2023-02-02T19:53:52;6.43;;;2.83;;
26620;SDS011;14253;44.840;10.444;2023-02-02T19:56:34;4.95;;;2.78;;
26620;SDS011;14253;44.840;10.444;2023-02-02T19:59:03;5.82;;;2.90;;
26620;SDS011;14253;44.840;10.444;2023-02-02T20:01:40;4.38;;;2.65;;
26620;SDS011;14253;44.840;10.444;2023-02-02T20:04:11;8.88;;;2.92;;
26620;SDS011;14253;44.840;10.444;2023-02-02T20:06:41;6.53;;;2.95;;
26620;SDS011;14253;44.840;10.444;2023-02-02T20:09:18;6.78;;;2.60;;
26620;SDS011;14253;44.840;10.444;2023-02-02T20:11:45;9.35;;;3.05;;
26620;SDS011;14253;44.840;10.444;2023-02-02T20:14:19;6.07;;;2.95;;
26620;SDS011;14253;44.840;10.444;2023-02-02T20:19:28;5.05;;;2.38;;
26620;SDS011;14253;44.840;10.444;2023-02-02T20:22:00;6.28;;;3.50;;
26620;SDS011;14253;44.840;10.444;2023-02-02T20:24:36;7.38;;;3.30;;
26620;SDS011;14253;44.840;10.444;2023-02-02T20:27:13;6.78;;;2.50;;
26620;SDS011;14253;44.840;10.444;2023-02-02T20:29:43;7.82;;;2.67;;
26620;SDS011;14253;44.840;10.444;2023-02-02T20:34:46;6.85;;;3.30;;
26620;SDS011;14253;44.840;10.444;2023-02-02T20:37:20;12.80;;;4.10;;
26620;SDS011;14253;44.840;10.444;2023-02-02T20:39:56;8.30;;;3.50;;
26620;SDS011;14253;44.840;10.444;2023-02-02T20:42:26;6.10;;;2.80;;
26620;SDS011;14253;44.840;10.444;2023-02-02T20:44:53;6.95;;;3.47;;